Time;durP1;ratioP1;P1;durP2;ratioP2;P2;SDS_P1;SDS_P2;PMS_P1;PMS_P2;Temp;Humidity;BMP_temperature;BMP_pressure;BME280_temperature;BME280_humidity;BME280_pressure;Samples;Min_cycle;Max_cycle;Signal;HPM_P1;HPM_P2
2023/11/23 00:02:22;;;;;;;;;;;15.90;69.70;;;;;;5084440;28;19923;-35
2023/11/23 00:04:47;;;;;;;;;;;15.90;69.70;;;;;;5084388;28;19913;-35
2023/11/23 00:07:13;;;;;;;;;;;15.90;69.70;;;;;;5075920;28;19919;-34
2023/11/23 00:09:39;;;;;;;;;;;15.90;69.70;;;;;;5083374;28;19919;-35
2023/11/23 00:12:05;;;;;;;;;;;15.90;69.70;;;;;;5089708;28;19993;-35
2023/11/23 00:14:32;;;;;;;;;;;15.90;69.70;;;;;;5079141;28;19920;-35
2023/11/23 00:16:58;;;;;;;;;;;15.80;69.60;;;;;;5074876;28;19913;-35
2023/11/23 00:19:24;;;;;;;;;;;15.80;69.60;;;;;;5076942;28;19916;-35
2023/11/23 00:21:50;;;;;;;;;;;15.80;69.60;;;;;;5082939;28;19921;-35
2023/11/23 00:24:17;;;;;;;;;;;15.80;69.60;;;;;;5073549;28;19979;-35
2023/11/23 00:26:46;;;;;;;;;;;15.80;69.60;;;;;;5080280;28;19912;-35
2023/11/23 00:29:12;;;;;;;;;;;15.80;69.60;;;;;;5083441;28;19954;-35
2023/11/23 00:31:38;;;;;;;;;;;15.80;69.60;;;;;;5082757;28;19916;-36
2023/11/23 00:34:05;;;;;;;;;;;15.80;69.60;;;;;;5082294;28;19912;-36
2023/11/23 00:36:31;;;;;;;;;;;15.70;69.60;;;;;;5072867;28;19987;-36
2023/11/23 00:38:57;;;;;;;;;;;15.70;69.60;;;;;;5073159;28;20365;-36
2023/11/23 00:41:23;;;;;;;;;;;15.70;69.50;;;;;;5080424;28;19912;-36
2023/11/23 00:43:50;;;;;;;;;;;15.70;69.50;;;;;;5078066;28;20018;-35
2023/11/23 00:46:16;;;;;;;;;;;15.70;69.60;;;;;;5082661;28;19916;-35
2023/11/23 00:48:42;;;;;;;;;;;15.70;69.60;;;;;;5082589;28;19916;-35
2023/11/23 00:51:08;;;;;;;;;;;15.70;69.60;;;;;;5080620;28;20003;-36
2023/11/23 00:53:34;;;;;;;;;;;15.70;69.60;;;;;;5077939;28;20088;-35
2023/11/23 00:56:01;;;;;;;;;;;15.70;69.50;;;;;;5075097;28;20002;-36
2023/11/23 00:58:27;;;;;;;;;;;15.70;69.60;;;;;;5072150;28;19930;-35
2023/11/23 01:00:52;;;;;;;;;;;15.60;69.60;;;;;;5078760;28;20444;-35
2023/11/23 01:03:18;;;;;;;;;;;15.60;69.50;;;;;;5069741;28;19915;-35
2023/11/23 01:05:45;;;;;;;;;;;15.60;69.50;;;;;;5076012;28;19916;-36
2023/11/23 01:08:11;;;;;;;;;;;15.60;69.50;;;;;;5074894;28;19919;-35
2023/11/23 01:10:36;;;;;;;;;;;15.60;69.50;;;;;;5114106;28;19940;-35
2023/11/23 01:13:02;;;;;;;;;;;15.60;69.60;;;;;;5081609;28;19931;-35
2023/11/23 01:15:28;;;;;;;;;;;15.60;69.60;;;;;;5076025;28;20573;-35
2023/11/23 01:17:54;;;;;;;;;;;15.60;69.60;;;;;;5073408;28;19919;-35
2023/11/23 01:20:20;;;;;;;;;;;15.60;69.60;;;;;;5078191;28;19987;-35
2023/11/23 01:22:46;;;;;;;;;;;15.60;69.60;;;;;;5071910;28;20145;-35
2023/11/23 01:25:13;;;;;;;;;;;15.60;69.60;;;;;;5079780;28;20389;-35
2023/11/23 01:27:39;;;;;;;;;;;15.50;69.50;;;;;;5072848;28;19919;-35
2023/11/23 01:30:05;;;;;;;;;;;15.50;69.50;;;;;;5073734;28;19912;-35
2023/11/23 01:32:32;;;;;;;;;;;15.50;69.50;;;;;;5082400;28;19924;-35
2023/11/23 01:34:58;;;;;;;;;;;15.50;69.50;;;;;;5075359;28;20471;-35
2023/11/23 01:37:23;;;;;;;;;;;15.50;69.50;;;;;;5075400;28;19915;-35
2023/11/23 01:39:49;;;;;;;;;;;15.50;69.50;;;;;;5082289;28;20281;-35
2023/11/23 01:42:15;;;;;;;;;;;15.50;69.60;;;;;;5082237;28;19919;-35
2023/11/23 01:44:41;;;;;;;;;;;15.50;69.60;;;;;;5084919;28;19974;-35
2023/11/23 01:47:08;;;;;;;;;;;15.50;69.50;;;;;;5080076;28;19912;-35
2023/11/23 01:49:37;;;;;;;;;;;15.40;69.50;;;;;;5070339;28;19912;-35
2023/11/23 01:52:03;;;;;;;;;;;15.50;69.60;;;;;;5074185;28;19924;-35
2023/11/23 01:54:29;;;;;;;;;;;15.40;69.50;;;;;;5082056;28;19912;-35
2023/11/23 01:56:54;;;;;;;;;;;15.40;69.50;;;;;;5081396;28;19919;-35
2023/11/23 01:59:20;;;;;;;;;;;15.40;69.50;;;;;;5075194;28;20542;-35
2023/11/23 02:01:46;;;;;;;;;;;15.40;69.50;;;;;;5082230;28;19919;-35
2023/11/23 02:04:12;;;;;;;;;;;15.40;69.50;;;;;;5073955;28;19938;-35
2023/11/23 02:06:38;;;;;;;;;;;15.40;69.50;;;;;;5082306;28;19912;-35
2023/11/23 02:09:05;;;;;;;;;;;15.40;69.50;;;;;;5081305;28;19909;-35
2023/11/23 02:11:31;;;;;;;;;;;15.40;69.60;;;;;;5081946;28;20432;-35
2023/11/23 02:13:59;;;;;;;;;;;15.40;69.50;;;;;;5081882;28;19913;-35
2023/11/23 02:16:26;;;;;;;;;;;15.30;69.50;;;;;;5075240;28;19938;-35
2023/11/23 02:18:52;;;;;;;;;;;15.40;69.60;;;;;;5084447;28;19918;-35
2023/11/23 02:21:18;;;;;;;;;;;15.30;69.50;;;;;;5082431;28;19939;-35
2023/11/23 02:23:45;;;;;;;;;;;15.30;69.50;;;;;;5082068;28;19920;-35
2023/11/23 02:26:11;;;;;;;;;;;15.30;69.50;;;;;;5081875;28;19909;-35
2023/11/23 02:28:38;;;;;;;;;;;15.30;69.50;;;;;;5076411;28;19909;-35
2023/11/23 02:31:04;;;;;;;;;;;15.30;69.50;;;;;;5079679;28;19908;-35
2023/11/23 02:33:31;;;;;;;;;;;15.30;69.50;;;;;;5084776;28;19920;-35
2023/11/23 02:35:57;;;;;;;;;;;15.30;69.60;;;;;;5080080;28;19966;-35
2023/11/23 02:38:24;;;;;;;;;;;15.20;69.40;;;;;;5085607;28;19912;-35
2023/11/23 02:40:51;;;;;;;;;;;15.30;69.60;;;;;;5085646;28;19950;-35
2023/11/23 02:43:17;;;;;;;;;;;15.20;69.40;;;;;;5082998;28;20004;-35
2023/11/23 02:45:45;;;;;;;;;;;15.20;69.40;;;;;;5081953;28;20029;-35
2023/11/23 02:48:12;;;;;;;;;;;15.20;69.40;;;;;;5084664;28;19919;-35
2023/11/23 02:50:38;;;;;;;;;;;15.20;69.40;;;;;;5085683;28;19912;-35
2023/11/23 02:53:17;;;;;;;;;;;15.20;69.50;;;;;;5082958;28;19920;-34
2023/11/23 02:55:43;;;;;;;;;;;15.20;69.40;;;;;;5085018;28;20395;-35
2023/11/23 02:58:09;;;;;;;;;;;15.20;69.50;;;;;;5078534;28;19909;-36
2023/11/23 03:00:35;;;;;;;;;;;15.20;69.50;;;;;;5085577;28;19918;-35
2023/11/23 03:03:01;;;;;;;;;;;15.10;69.40;;;;;;5085110;28;19975;-35
2023/11/23 03:05:27;;;;;;;;;;;15.10;69.50;;;;;;5085275;28;19912;-35
2023/11/23 03:07:54;;;;;;;;;;;15.10;69.50;;;;;;5084479;28;20373;-35
2023/11/23 03:10:20;;;;;;;;;;;15.10;69.50;;;;;;5081708;28;19913;-35
2023/11/23 03:12:46;;;;;;;;;;;15.10;69.40;;;;;;5081762;28;19923;-34
2023/11/23 03:15:12;;;;;;;;;;;15.10;69.50;;;;;;5077670;28;19912;-35
2023/11/23 03:17:38;;;;;;;;;;;15.10;69.40;;;;;;5085452;28;19984;-36
2023/11/23 03:20:04;;;;;;;;;;;15.10;69.30;;;;;;5084196;28;19979;-35
2023/11/23 03:22:30;;;;;;;;;;;15.10;69.40;;;;;;5084821;28;19947;-35
2023/11/23 03:24:56;;;;;;;;;;;15.10;69.40;;;;;;5082281;28;19912;-35
2023/11/23 03:27:23;;;;;;;;;;;15.00;69.40;;;;;;5074438;28;19935;-35
2023/11/23 03:29:49;;;;;;;;;;;15.10;69.40;;;;;;5073404;28;19912;-35
2023/11/23 03:32:15;;;;;;;;;;;15.00;69.30;;;;;;5083688;28;19916;-34
2023/11/23 03:34:41;;;;;;;;;;;15.00;69.30;;;;;;5077948;28;19908;-34
2023/11/23 03:37:07;;;;;;;;;;;15.00;69.40;;;;;;5077021;28;19921;-34
2023/11/23 03:39:33;;;;;;;;;;;15.00;69.40;;;;;;5081709;28;19919;-35
2023/11/23 03:42:00;;;;;;;;;;;15.00;69.30;;;;;;5081185;28;19908;-35
2023/11/23 03:44:27;;;;;;;;;;;15.00;69.30;;;;;;5077481;28;19920;-34
2023/11/23 03:46:53;;;;;;;;;;;15.00;69.40;;;;;;5076807;28;19912;-34
2023/11/23 03:49:19;;;;;;;;;;;15.00;69.40;;;;;;5066272;28;19908;-35
2023/11/23 03:51:45;;;;;;;;;;;14.90;69.30;;;;;;5072711;28;19920;-34
2023/11/23 03:54:12;;;;;;;;;;;14.90;69.30;;;;;;5084269;28;19983;-35
2023/11/23 03:56:38;;;;;;;;;;;14.90;69.30;;;;;;5078304;28;19912;-35
2023/11/23 03:59:05;;;;;;;;;;;14.90;69.40;;;;;;5071348;28;19909;-35
2023/11/23 04:01:31;;;;;;;;;;;14.90;69.40;;;;;;5077409;28;19912;-35
2023/11/23 04:03:57;;;;;;;;;;;14.90;69.30;;;;;;5068271;28;19909;-35
2023/11/23 04:06:23;;;;;;;;;;;15.00;69.80;;;;;;5070313;28;19969;-34
2023/11/23 04:08:49;;;;;;;;;;;15.00;69.80;;;;;;5076041;28;19908;-34
2023/11/23 04:11:15;;;;;;;;;;;15.10;69.80;;;;;;5076740;28;20003;-34
2023/11/23 04:13:41;;;;;;;;;;;15.00;69.50;;;;;;5077268;28;19962;-35
2023/11/23 04:16:07;;;;;;;;;;;15.00;69.50;;;;;;5083036;28;20412;-34
2023/11/23 04:18:33;;;;;;;;;;;15.00;69.60;;;;;;5083903;28;19912;-35
2023/11/23 04:20:59;;;;;;;;;;;15.00;69.60;;;;;;5086283;28;19913;-35
2023/11/23 04:23:25;;;;;;;;;;;15.00;69.50;;;;;;5083328;28;19908;-35
2023/11/23 04:25:50;;;;;;;;;;;14.90;69.60;;;;;;5083122;28;19909;-35
2023/11/23 04:28:16;;;;;;;;;;;14.90;69.50;;;;;;5083607;28;19913;-35
2023/11/23 04:30:42;;;;;;;;;;;14.90;69.40;;;;;;5075918;28;20601;-36
2023/11/23 04:33:08;;;;;;;;;;;14.90;69.50;;;;;;5076415;28;20011;-35
2023/11/23 04:35:35;;;;;;;;;;;14.90;69.50;;;;;;5078182;28;19950;-35
2023/11/23 04:38:01;;;;;;;;;;;14.90;69.40;;;;;;5081514;28;20136;-35
2023/11/23 04:40:27;;;;;;;;;;;14.90;69.50;;;;;;5072765;28;19919;-34
2023/11/23 04:42:53;;;;;;;;;;;14.90;69.50;;;;;;5080324;28;20011;-34
2023/11/23 04:45:19;;;;;;;;;;;15.00;69.90;;;;;;5081586;28;19915;-34
2023/11/23 04:47:45;;;;;;;;;;;15.00;70.00;;;;;;5076361;28;19912;-34
2023/11/23 04:50:11;;;;;;;;;;;15.10;70.00;;;;;;5083152;28;20002;-34
2023/11/23 04:52:37;;;;;;;;;;;15.00;69.70;;;;;;5082752;28;19920;-34
2023/11/23 04:55:03;;;;;;;;;;;15.00;69.80;;;;;;5082231;28;20004;-34
2023/11/23 04:57:29;;;;;;;;;;;15.00;69.80;;;;;;5083598;28;20368;-34
2023/11/23 04:59:55;;;;;;;;;;;14.90;69.80;;;;;;5074857;28;19905;-35
2023/11/23 05:02:21;;;;;;;;;;;15.00;69.80;;;;;;5082012;28;19915;-34
2023/11/23 05:04:47;;;;;;;;;;;14.90;69.70;;;;;;5082332;28;19909;-34
2023/11/23 05:07:13;;;;;;;;;;;14.90;69.70;;;;;;5082389;28;19919;-34
2023/11/23 05:09:38;;;;;;;;;;;14.90;69.80;;;;;;5082411;28;19912;-34
2023/11/23 05:12:05;;;;;;;;;;;14.90;70.50;;;;;;5082419;28;19916;-34
2023/11/23 05:14:30;;;;;;;;;;;15.00;70.10;;;;;;5083292;28;19912;-34
2023/11/23 05:16:56;;;;;;;;;;;15.00;70.20;;;;;;5082668;28;19915;-34
2023/11/23 05:19:22;;;;;;;;;;;15.10;70.20;;;;;;5070070;28;19913;-34
2023/11/23 05:21:48;;;;;;;;;;;15.00;69.90;;;;;;5079358;28;19932;-34
2023/11/23 05:24:14;;;;;;;;;;;15.00;69.90;;;;;;5082211;28;19934;-34
2023/11/23 05:26:40;;;;;;;;;;;15.00;70.00;;;;;;5082825;28;19905;-34
2023/11/23 05:29:06;;;;;;;;;;;15.00;70.00;;;;;;5082308;28;19985;-34
2023/11/23 05:31:32;;;;;;;;;;;15.00;70.00;;;;;;5082869;28;19916;-34
2023/11/23 05:33:58;;;;;;;;;;;14.90;70.00;;;;;;5081458;28;19908;-34
2023/11/23 05:36:24;;;;;;;;;;;14.90;70.00;;;;;;5082381;28;19919;-34
2023/11/23 05:38:50;;;;;;;;;;;14.90;69.90;;;;;;5081616;28;19971;-34
2023/11/23 05:41:15;;;;;;;;;;;14.90;69.90;;;;;;5082449;28;20285;-35
2023/11/23 05:43:41;;;;;;;;;;;14.90;69.90;;;;;;5085336;28;19978;-35
2023/11/23 05:46:07;;;;;;;;;;;14.90;70.20;;;;;;5082240;28;19980;-34
2023/11/23 05:48:33;;;;;;;;;;;15.00;70.40;;;;;;5082547;28;19955;-34
2023/11/23 05:50:59;;;;;;;;;;;15.10;70.40;;;;;;5081969;28;19912;-34
2023/11/23 05:53:25;;;;;;;;;;;15.00;70.10;;;;;;5082403;28;19976;-34
2023/11/23 05:55:51;;;;;;;;;;;15.00;70.10;;;;;;5082481;28;19909;-35
2023/11/23 05:58:17;;;;;;;;;;;15.00;70.20;;;;;;5082498;28;19912;-35
2023/11/23 06:00:42;;;;;;;;;;;15.00;70.20;;;;;;5082497;28;19913;-35
2023/11/23 06:03:08;;;;;;;;;;;15.00;70.20;;;;;;5081968;28;19920;-35
2023/11/23 06:05:35;;;;;;;;;;;14.90;70.10;;;;;;5082087;28;19915;-34
2023/11/23 06:08:01;;;;;;;;;;;14.90;70.10;;;;;;5083805;28;20365;-34
2023/11/23 06:10:28;;;;;;;;;;;14.90;70.10;;;;;;5086826;28;19919;-34
2023/11/23 06:13:12;;;;;;;;;;;14.90;70.20;;;;;;5085862;28;19922;-34
2023/11/23 06:15:38;;;;;;;;;;;14.90;70.50;;;;;;5086411;28;19912;-34
2023/11/23 06:18:04;;;;;;;;;;;15.00;70.70;;;;;;5085197;28;19954;-35
2023/11/23 06:20:30;;;;;;;;;;;15.10;70.60;;;;;;5086226;28;19912;-35
2023/11/23 06:22:56;;;;;;;;;;;15.00;70.30;;;;;;5085723;28;19913;-35
2023/11/23 06:25:22;;;;;;;;;;;15.00;70.30;;;;;;5086015;28;19919;-35
2023/11/23 06:27:48;;;;;;;;;;;15.00;70.30;;;;;;5085902;28;19950;-34
2023/11/23 06:30:14;;;;;;;;;;;15.00;70.40;;;;;;5086663;28;19943;-35
2023/11/23 06:32:40;;;;;;;;;;;15.00;70.40;;;;;;5086079;28;19916;-34
2023/11/23 06:35:07;;;;;;;;;;;14.90;70.40;;;;;;5085102;28;20668;-34
2023/11/23 06:37:32;;;;;;;;;;;14.90;70.40;;;;;;5085599;28;19916;-35
2023/11/23 06:39:58;;;;;;;;;;;14.90;70.30;;;;;;5086440;28;19918;-34
2023/11/23 06:42:24;;;;;;;;;;;14.90;70.40;;;;;;5085886;28;19930;-34
2023/11/23 06:44:52;;;;;;;;;;;15.00;70.70;;;;;;5084889;28;20002;-35
2023/11/23 06:47:18;;;;;;;;;;;15.00;70.70;;;;;;5085859;28;19912;-35
2023/11/23 06:49:45;;;;;;;;;;;15.00;70.40;;;;;;5085516;28;20061;-35
2023/11/23 06:52:10;;;;;;;;;;;15.00;70.50;;;;;;5085261;28;19920;-35
2023/11/23 06:54:36;;;;;;;;;;;15.00;70.50;;;;;;5085607;28;19919;-34
2023/11/23 06:57:02;;;;;;;;;;;15.00;70.60;;;;;;5085132;28;19916;-34
2023/11/23 06:59:30;;;;;;;;;;;15.00;70.60;;;;;;5085538;28;20359;-35
2023/11/23 07:01:56;;;;;;;;;;;14.90;70.60;;;;;;5084494;28;19912;-39
2023/11/23 07:04:21;;;;;;;;;;;14.90;70.50;;;;;;5078230;28;19924;-35
2023/11/23 07:06:49;;;;;;;;;;;14.80;70.50;;;;;;5084803;28;20672;-35
2023/11/23 07:09:17;;;;;;;;;;;14.90;70.80;;;;;;5084761;28;19919;-34
2023/11/23 07:11:44;;;;;;;;;;;15.10;70.90;;;;;;5085448;28;19923;-34
2023/11/23 07:14:10;;;;;;;;;;;15.00;70.70;;;;;;5084913;28;19916;-34
2023/11/23 07:16:36;;;;;;;;;;;15.00;70.60;;;;;;5085218;28;19952;-34
2023/11/23 07:19:02;;;;;;;;;;;15.00;70.60;;;;;;5084123;28;19920;-34
2023/11/23 07:21:28;;;;;;;;;;;15.00;70.70;;;;;;5084769;28;19913;-34
2023/11/23 07:23:54;;;;;;;;;;;15.00;70.70;;;;;;5083863;28;20013;-34
2023/11/23 07:26:20;;;;;;;;;;;14.90;70.70;;;;;;5077913;28;19912;-35
2023/11/23 07:28:47;;;;;;;;;;;14.90;70.70;;;;;;5085028;28;19909;-35
2023/11/23 07:31:13;;;;;;;;;;;14.90;70.70;;;;;;5084623;28;19909;-34
2023/11/23 07:33:39;;;;;;;;;;;14.80;70.60;;;;;;5084990;28;20296;-34
2023/11/23 07:36:05;;;;;;;;;;;14.90;70.90;;;;;;5084388;28;19912;-34
2023/11/23 07:38:32;;;;;;;;;;;15.00;70.90;;;;;;5084210;28;19919;-34
2023/11/23 07:40:58;;;;;;;;;;;15.00;70.80;;;;;;5084391;28;19912;-35
2023/11/23 07:43:24;;;;;;;;;;;15.00;70.70;;;;;;5084396;28;19942;-34
2023/11/23 07:45:50;;;;;;;;;;;15.00;70.70;;;;;;5090033;28;19916;-34
2023/11/23 07:48:18;;;;;;;;;;;14.90;70.70;;;;;;5084826;28;19988;-35
2023/11/23 07:50:44;;;;;;;;;;;14.90;70.70;;;;;;5084764;28;19919;-34
2023/11/23 07:53:10;;;;;;;;;;;14.90;70.70;;;;;;5085575;28;19920;-35
2023/11/23 07:55:37;;;;;;;;;;;14.90;70.70;;;;;;5084645;28;19948;-35
2023/11/23 07:58:02;;;;;;;;;;;14.80;70.70;;;;;;5068418;28;20393;-34
2023/11/23 08:00:28;;;;;;;;;;;14.80;70.70;;;;;;5084569;28;20460;-35
2023/11/23 08:02:54;;;;;;;;;;;14.80;70.80;;;;;;5084109;28;19912;-35
2023/11/23 08:05:20;;;;;;;;;;;15.00;71.00;;;;;;5084117;28;20571;-35
2023/11/23 08:07:56;;;;;;;;;;;15.00;70.90;;;;;;5083621;28;19908;-35
2023/11/23 08:10:22;;;;;;;;;;;15.00;70.80;;;;;;5077664;28;19923;-35
2023/11/23 08:12:48;;;;;;;;;;;15.00;70.80;;;;;;5083989;28;19995;-35
2023/11/23 08:15:14;;;;;;;;;;;14.90;70.80;;;;;;5083242;28;20288;-35
2023/11/23 08:17:40;;;;;;;;;;;14.90;70.80;;;;;;5084087;28;20373;-35
2023/11/23 08:20:08;;;;;;;;;;;14.80;70.80;;;;;;5083957;28;19912;-35
2023/11/23 08:22:34;;;;;;;;;;;14.80;70.80;;;;;;5084100;28;19953;-35
2023/11/23 08:25:00;;;;;;;;;;;14.80;70.80;;;;;;5083119;28;19912;-35
2023/11/23 08:27:26;;;;;;;;;;;14.80;70.80;;;;;;5084087;28;19973;-35
2023/11/23 08:29:52;;;;;;;;;;;14.90;71.00;;;;;;5082870;28;19920;-35
2023/11/23 08:32:18;;;;;;;;;;;15.00;71.00;;;;;;5083863;28;19920;-35
2023/11/23 08:34:44;;;;;;;;;;;15.00;70.80;;;;;;5082986;28;20001;-34
2023/11/23 08:37:10;;;;;;;;;;;15.00;70.70;;;;;;5082283;28;20008;-35
2023/11/23 08:39:37;;;;;;;;;;;14.90;70.80;;;;;;5088548;28;20010;-34
2023/11/23 08:42:03;;;;;;;;;;;14.90;70.90;;;;;;5084046;28;20444;-34
2023/11/23 08:44:29;;;;;;;;;;;14.90;70.90;;;;;;5088296;28;19946;-35
2023/11/23 08:46:57;;;;;;;;;;;14.80;70.80;;;;;;5081392;28;19930;-34
2023/11/23 08:49:25;;;;;;;;;;;14.80;70.80;;;;;;5083033;28;20296;-34
2023/11/23 08:51:51;;;;;;;;;;;14.80;70.90;;;;;;5081670;28;20380;-35
2023/11/23 08:54:18;;;;;;;;;;;14.90;71.10;;;;;;5081394;28;19919;-35
2023/11/23 08:56:46;;;;;;;;;;;15.00;71.00;;;;;;5075789;28;19919;-34
2023/11/23 08:59:12;;;;;;;;;;;15.00;70.90;;;;;;5081629;28;19916;-34
2023/11/23 09:01:38;;;;;;;;;;;15.00;70.70;;;;;;5083066;28;19912;-34
2023/11/23 09:04:04;;;;;;;;;;;15.00;70.80;;;;;;5081571;28;20356;-34
2023/11/23 09:06:30;;;;;;;;;;;14.90;70.90;;;;;;5083442;28;19968;-35
2023/11/23 09:09:00;;;;;;;;;;;14.90;70.80;;;;;;5082100;28;19912;-34
2023/11/23 09:11:26;;;;;;;;;;;14.80;70.80;;;;;;5083432;28;19912;-34
2023/11/23 09:13:52;;;;;;;;;;;14.80;70.90;;;;;;5082832;28;19930;-34
2023/11/23 09:16:18;;;;;;;;;;;14.80;70.80;;;;;;5083213;28;19912;-34
2023/11/23 09:18:44;;;;;;;;;;;14.80;70.80;;;;;;5083071;28;20335;-35
2023/11/23 09:21:13;;;;;;;;;;;14.80;70.80;;;;;;5082839;28;19968;-34
2023/11/23 09:23:40;;;;;;;;;;;14.90;71.00;;;;;;5082118;28;19908;-34
2023/11/23 09:26:07;;;;;;;;;;;15.00;70.90;;;;;;5081224;28;19937;-35
2023/11/23 09:28:33;;;;;;;;;;;15.00;70.70;;;;;;5082193;28;19912;-35
2023/11/23 09:30:59;;;;;;;;;;;15.00;70.70;;;;;;5081713;28;19918;-35
2023/11/23 09:33:26;;;;;;;;;;;14.90;70.70;;;;;;5082191;28;19924;-35
2023/11/23 09:35:52;;;;;;;;;;;14.90;70.80;;;;;;5082098;28;19973;-35
2023/11/23 09:38:18;;;;;;;;;;;14.80;70.80;;;;;;5081613;28;20662;-34
2023/11/23 09:40:44;;;;;;;;;;;14.80;70.90;;;;;;5082003;28;19920;-35
2023/11/23 09:43:10;;;;;;;;;;;14.80;70.90;;;;;;5081090;28;19917;-35
2023/11/23 09:45:36;;;;;;;;;;;14.90;71.10;;;;;;5082059;28;19912;-35
2023/11/23 09:48:02;;;;;;;;;;;15.00;71.00;;;;;;5082070;28;19939;-35
2023/11/23 09:50:28;;;;;;;;;;;15.00;70.70;;;;;;5082793;28;19912;-34
2023/11/23 09:52:54;;;;;;;;;;;14.90;70.70;;;;;;5082125;28;19920;-34
2023/11/23 09:55:20;;;;;;;;;;;14.90;70.80;;;;;;5113125;28;19913;-34
2023/11/23 09:57:49;;;;;;;;;;;14.90;70.80;;;;;;5081845;28;19912;-34
2023/11/23 10:00:15;;;;;;;;;;;14.80;70.80;;;;;;5081578;28;19912;-34
2023/11/23 10:02:45;;;;;;;;;;;14.80;70.80;;;;;;5084290;28;19939;-34
2023/11/23 10:05:14;;;;;;;;;;;14.80;70.90;;;;;;5081458;28;19908;-34
2023/11/23 10:07:42;;;;;;;;;;;14.90;71.00;;;;;;5081970;28;19930;-34
2023/11/23 10:10:11;;;;;;;;;;;15.00;70.90;;;;;;5080942;28;20412;-34
2023/11/23 10:12:37;;;;;;;;;;;15.00;70.80;;;;;;5082000;28;19994;-34
2023/11/23 10:15:04;;;;;;;;;;;14.90;70.80;;;;;;5081919;28;19917;-34
2023/11/23 10:17:30;;;;;;;;;;;14.90;70.80;;;;;;5082299;28;19912;-34
2023/11/23 10:20:17;;;;;;;;;;;14.80;70.80;;;;;;5082145;28;20276;-35
2023/11/23 10:22:47;;;;;;;;;;;14.80;70.80;;;;;;5082581;28;19954;-35
2023/11/23 10:25:24;;;;;;;;;;;14.80;70.90;;;;;;5081113;28;19923;-35
2023/11/23 10:27:50;;;;;;;;;;;14.80;70.90;;;;;;5080514;28;19912;-35
2023/11/23 10:30:16;;;;;;;;;;;14.80;71.10;;;;;;5081091;28;20037;-35
2023/11/23 10:32:42;;;;;;;;;;;14.90;71.00;;;;;;5082155;28;20038;-35
2023/11/23 10:35:09;;;;;;;;;;;15.00;70.90;;;;;;5081544;28;19924;-34
2023/11/23 10:37:36;;;;;;;;;;;15.00;70.80;;;;;;5081614;28;20003;-35
2023/11/23 10:40:05;;;;;;;;;;;14.90;70.80;;;;;;5071503;28;19948;-34
2023/11/23 10:42:32;;;;;;;;;;;14.90;70.90;;;;;;5085460;28;19909;-34
2023/11/23 10:44:58;;;;;;;;;;;14.80;70.90;;;;;;5089335;28;19955;-34
2023/11/23 10:47:24;;;;;;;;;;;14.80;70.90;;;;;;5082493;28;19908;-34
2023/11/23 10:49:50;;;;;;;;;;;14.80;70.80;;;;;;5079242;28;19912;-34
2023/11/23 10:52:16;;;;;;;;;;;14.80;71.00;;;;;;5113186;28;19916;-35
2023/11/23 10:54:42;;;;;;;;;;;14.90;71.10;;;;;;5084945;28;19924;-35
2023/11/23 10:57:08;;;;;;;;;;;15.00;71.00;;;;;;5085285;28;19916;-34
2023/11/23 10:59:34;;;;;;;;;;;14.90;70.70;;;;;;5084303;28;20253;-35
2023/11/23 11:02:01;;;;;;;;;;;14.90;70.80;;;;;;5082935;28;19912;-34
2023/11/23 11:04:30;;;;;;;;;;;14.90;70.90;;;;;;5085471;28;19908;-34
2023/11/23 11:06:56;;;;;;;;;;;14.80;70.80;;;;;;5083290;28;20023;-34
2023/11/23 11:09:23;;;;;;;;;;;14.80;70.90;;;;;;5116789;28;20345;-34
2023/11/23 11:11:53;;;;;;;;;;;14.80;70.90;;;;;;5077078;28;19967;-34
2023/11/23 11:14:19;;;;;;;;;;;14.80;71.10;;;;;;5077747;28;19912;-35
2023/11/23 11:16:45;;;;;;;;;;;14.90;71.00;;;;;;5082155;28;19920;-34
2023/11/23 11:19:13;;;;;;;;;;;15.00;71.00;;;;;;5066714;28;19913;-34
2023/11/23 11:21:41;;;;;;;;;;;14.90;70.70;;;;;;5075624;28;19913;-35
2023/11/23 11:24:15;;;;;;;;;;;14.90;70.80;;;;;;5081631;28;19916;-33
2023/11/23 11:26:42;;;;;;;;;;;14.90;71.00;;;;;;5078912;28;19909;-33
2023/11/23 11:29:08;;;;;;;;;;;14.80;70.90;;;;;;5074130;28;19932;-34
2023/11/23 11:31:39;;;;;;;;;;;14.80;70.90;;;;;;5105564;28;19909;-34
2023/11/23 11:34:14;;;;;;;;;;;14.70;70.80;;;;;;5074027;28;19956;-34
2023/11/23 11:36:41;;;;;;;;;;;14.80;71.00;;;;;;5066234;28;20310;-34
2023/11/23 11:39:07;;;;;;;;;;;15.00;71.00;;;;;;5066452;28;19920;-34
2023/11/23 11:41:37;;;;;;;;;;;14.90;70.80;;;;;;5079406;28;19916;-34
2023/11/23 11:44:07;;;;;;;;;;;14.90;70.80;;;;;;5076600;28;19931;-34
2023/11/23 11:46:48;;;;;;;;;;;14.90;70.80;;;;;;5061767;28;20422;-34
2023/11/23 11:49:14;;;;;;;;;;;14.80;70.90;;;;;;5061118;28;19967;-34
2023/11/23 11:51:41;;;;;;;;;;;14.80;70.90;;;;;;5061683;28;19908;-34
2023/11/23 11:54:07;;;;;;;;;;;14.80;70.90;;;;;;5053684;28;20496;-34
2023/11/23 11:56:33;;;;;;;;;;;14.70;70.80;;;;;;5042931;28;19940;-33
2023/11/23 11:58:59;;;;;;;;;;;14.80;71.00;;;;;;5061215;28;19936;-34
2023/11/23 12:01:25;;;;;;;;;;;14.90;71.70;;;;;;5062428;28;19908;-34
2023/11/23 12:03:51;;;;;;;;;;;15.00;70.80;;;;;;5061290;28;19919;-36
2023/11/23 12:06:19;;;;;;;;;;;14.90;70.70;;;;;;5054372;28;19912;-35
2023/11/23 12:08:45;;;;;;;;;;;14.90;70.80;;;;;;5061260;28;19908;-35
2023/11/23 12:11:21;;;;;;;;;;;14.80;70.80;;;;;;5044233;28;20585;-35
2023/11/23 12:13:47;;;;;;;;;;;14.80;70.80;;;;;;5061869;28;19916;-35
2023/11/23 12:16:13;;;;;;;;;;;14.80;70.90;;;;;;5058125;28;19944;-36
2023/11/23 12:18:40;;;;;;;;;;;14.70;70.80;;;;;;5056989;28;19904;-35
2023/11/23 12:21:13;;;;;;;;;;;14.90;71.10;;;;;;5061088;28;19912;-33
2023/11/23 12:23:42;;;;;;;;;;;14.90;70.80;;;;;;5069472;28;19990;-33
2023/11/23 12:26:17;;;;;;;;;;;14.90;70.70;;;;;;5083326;28;19908;-33
2023/11/23 12:28:45;;;;;;;;;;;14.90;70.80;;;;;;5083435;28;19923;-35
2023/11/23 12:31:12;;;;;;;;;;;14.80;70.80;;;;;;5115886;28;19908;-35
2023/11/23 12:33:38;;;;;;;;;;;14.80;70.80;;;;;;5083700;28;19927;-36
2023/11/23 12:36:05;;;;;;;;;;;14.80;70.90;;;;;;5084789;28;19904;-35
2023/11/23 12:38:31;;;;;;;;;;;14.70;70.70;;;;;;5088635;28;19912;-35
2023/11/23 12:40:57;;;;;;;;;;;14.80;71.00;;;;;;5082303;28;19904;-35
2023/11/23 12:43:23;;;;;;;;;;;14.90;70.90;;;;;;5083617;28;19996;-35
2023/11/23 12:45:49;;;;;;;;;;;15.00;70.80;;;;;;5083244;28;19912;-35
2023/11/23 12:48:15;;;;;;;;;;;14.90;70.70;;;;;;5082200;28;19955;-34
2023/11/23 12:50:41;;;;;;;;;;;14.90;70.80;;;;;;5083436;28;19919;-34
2023/11/23 12:53:07;;;;;;;;;;;14.80;70.70;;;;;;5084729;28;19913;-35
2023/11/23 12:55:33;;;;;;;;;;;14.80;70.80;;;;;;5077323;28;19936;-34
2023/11/23 12:57:59;;;;;;;;;;;14.80;70.80;;;;;;5079981;28;19936;-34
2023/11/23 13:00:28;;;;;;;;;;;14.70;70.70;;;;;;5082696;28;19962;-34
2023/11/23 13:02:54;;;;;;;;;;;14.80;70.90;;;;;;5081981;28;19967;-35
2023/11/23 13:05:21;;;;;;;;;;;14.90;70.90;;;;;;5083234;28;19919;-34
2023/11/23 13:07:47;;;;;;;;;;;14.90;70.70;;;;;;5082979;28;19958;-34
2023/11/23 13:10:16;;;;;;;;;;;14.90;70.70;;;;;;5079366;28;19943;-34
2023/11/23 13:12:42;;;;;;;;;;;14.90;70.70;;;;;;5078850;28;19920;-34
2023/11/23 13:15:17;;;;;;;;;;;14.90;70.80;;;;;;5082303;28;19960;-34
2023/11/23 13:17:43;;;;;;;;;;;14.80;70.70;;;;;;5082732;28;19924;-33
2023/11/23 13:20:10;;;;;;;;;;;14.80;70.80;;;;;;5082377;28;19931;-34
2023/11/23 13:22:36;;;;;;;;;;;14.80;70.80;;;;;;5082785;28;19919;-34
2023/11/23 13:25:05;;;;;;;;;;;14.80;70.90;;;;;;5081929;28;19916;-34
2023/11/23 13:27:32;;;;;;;;;;;14.90;70.80;;;;;;5083062;28;19940;-34
2023/11/23 13:30:02;;;;;;;;;;;14.90;70.70;;;;;;5082301;28;19919;-34
2023/11/23 13:32:28;;;;;;;;;;;14.90;70.70;;;;;;5077124;28;19988;-35
2023/11/23 13:34:54;;;;;;;;;;;14.90;70.70;;;;;;5082490;28;19912;-34
2023/11/23 13:37:20;;;;;;;;;;;14.80;70.80;;;;;;5082422;28;19912;-34
2023/11/23 13:39:47;;;;;;;;;;;14.80;70.70;;;;;;5082720;28;19918;-34
2023/11/23 13:42:14;;;;;;;;;;;14.80;70.70;;;;;;5082003;28;19923;-34
2023/11/23 13:44:40;;;;;;;;;;;14.80;70.90;;;;;;5067330;28;19984;-34
2023/11/23 13:47:12;;;;;;;;;;;15.00;70.90;;;;;;5081192;28;19912;-39
2023/11/23 13:49:42;;;;;;;;;;;15.00;70.70;;;;;;5081792;28;19919;-34
2023/11/23 13:52:10;;;;;;;;;;;15.00;70.70;;;;;;5081961;28;19920;-34
2023/11/23 13:54:37;;;;;;;;;;;14.90;70.70;;;;;;5082427;28;19919;-34
2023/11/23 13:57:03;;;;;;;;;;;14.90;70.70;;;;;;5080583;28;19942;-35
2023/11/23 13:59:29;;;;;;;;;;;14.80;71.40;;;;;;5085844;28;19912;-34
2023/11/23 14:01:55;;;;;;;;;;;14.80;70.70;;;;;;5082114;28;19908;-34
2023/11/23 14:04:21;;;;;;;;;;;14.80;70.70;;;;;;5075036;28;19919;-34
2023/11/23 14:06:47;;;;;;;;;;;14.80;70.70;;;;;;5082020;28;19979;-34
2023/11/23 14:09:19;;;;;;;;;;;14.90;70.90;;;;;;5081697;28;19939;-34
2023/11/23 14:11:45;;;;;;;;;;;15.00;70.70;;;;;;5082534;28;19912;-35
2023/11/23 14:14:12;;;;;;;;;;;15.00;70.70;;;;;;5082363;28;20097;-34